createdAt,value
2017-04-17T00:01:11.671Z,925.8
2017-04-17T00:02:24.900Z,925.71
2017-04-17T00:03:37.615Z,925.65
2017-04-17T00:04:50.871Z,925.75
2017-04-17T00:06:04.111Z,925.78
2017-04-17T00:07:17.352Z,925.75
2017-04-17T00:08:30.067Z,925.7
2017-04-17T00:09:43.490Z,925.73
2017-04-17T00:10:56.741Z,925.7
2017-04-17T00:12:10.138Z,925.74
2017-04-17T00:13:23.361Z,925.71
2017-04-17T00:14:36.605Z,925.74
2017-04-17T00:15:49.827Z,925.71
2017-04-17T00:17:02.586Z,925.69
2017-04-17T00:18:15.314Z,925.69
2017-04-17T00:19:28.564Z,925.68
2017-04-17T00:20:41.807Z,925.71
2017-04-17T00:21:54.509Z,925.72
2017-04-17T00:23:07.238Z,925.69
2017-04-17T00:24:20.497Z,925.71
2017-04-17T00:25:33.731Z,925.74
2017-04-17T00:26:46.981Z,925.76
2017-04-17T00:28:00.213Z,925.77
2017-04-17T00:29:12.939Z,925.77
2017-04-17T00:30:26.155Z,925.76
2017-04-17T00:31:39.386Z,925.77
2017-04-17T00:32:52.653Z,925.84
2017-04-17T00:34:05.878Z,925.8
2017-04-17T00:35:18.084Z,925.78
2017-04-17T00:36:31.334Z,925.84
2017-04-17T00:37:44.546Z,925.84
2017-04-17T00:38:57.951Z,925.83
2017-04-17T00:40:11.165Z,925.85
2017-04-17T00:41:24.427Z,925.91
2017-04-17T00:42:37.638Z,925.93
2017-04-17T00:43:50.890Z,925.93
2017-04-17T00:45:04.131Z,925.93
2017-04-17T00:46:16.914Z,925.92
2017-04-17T00:47:30.156Z,925.91
2017-04-17T00:48:43.389Z,925.96
2017-04-17T00:49:56.676Z,925.94
2017-04-17T00:51:09.912Z,925.95
2017-04-17T00:52:23.214Z,925.98
2017-04-17T00:53:35.967Z,926.01
2017-04-17T00:54:49.441Z,926.07
2017-04-17T00:56:02.152Z,926.06
2017-04-17T00:57:14.886Z,926.11
2017-04-17T00:58:28.127Z,926.07
2017-04-17T00:59:41.378Z,926.1
2017-04-17T01:00:54.604Z,926.11
2017-04-17T01:02:07.871Z,926.12
2017-04-17T01:03:20.610Z,926.09
2017-04-17T01:04:33.885Z,926.05
2017-04-17T01:05:47.121Z,926.12
2017-04-17T01:07:00.391Z,926.17
2017-04-17T01:08:13.638Z,926.16
2017-04-17T01:09:26.380Z,926.25
2017-04-17T01:10:39.889Z,926.29
2017-04-17T01:11:53.128Z,926.27
2017-04-17T01:13:06.378Z,926.29
2017-04-17T01:14:19.623Z,926.27
2017-04-17T01:15:32.847Z,926.27
2017-04-17T01:16:45.558Z,926.28
2017-04-17T01:17:58.785Z,926.29
2017-04-17T01:19:12.022Z,926.31
2017-04-17T01:20:25.285Z,926.27
2017-04-17T01:21:38.507Z,926.26
2017-04-17T01:22:51.741Z,926.3
2017-04-17T01:24:04.990Z,926.27
2017-04-17T01:25:18.265Z,926.29
2017-04-17T01:26:31.494Z,926.3
2017-04-17T01:27:44.756Z,926.26
2017-04-17T01:28:58.034Z,926.31
2017-04-17T01:30:11.271Z,926.33
2017-04-17T01:31:24.017Z,926.3
2017-04-17T01:32:37.307Z,926.28
2017-04-17T01:33:50.537Z,926.29
2017-04-17T01:35:03.754Z,926.27
2017-04-17T01:36:16.977Z,926.28
2017-04-17T01:37:30.204Z,926.27
2017-04-17T01:38:43.491Z,926.22
2017-04-17T01:39:56.701Z,926.21
2017-04-17T01:41:09.935Z,926.15
2017-04-17T01:42:22.630Z,926.12
2017-04-17T01:43:35.872Z,926.07
2017-04-17T01:44:49.129Z,926.11
2017-04-17T01:46:02.356Z,926.17
2017-04-17T01:47:14.065Z,926.13
2017-04-17T01:48:27.310Z,926.13
2017-04-17T01:49:40.556Z,926.14
2017-04-17T01:50:53.786Z,926.12
2017-04-17T01:52:07.047Z,926.15
2017-04-17T01:53:20.289Z,926.15
2017-04-17T01:54:33.534Z,926.14
2017-04-17T01:55:47.028Z,926.15
2017-04-17T01:57:00.281Z,926.14
2017-04-17T01:58:12.511Z,926.14
2017-04-17T01:59:25.729Z,926.09
2017-04-17T02:00:38.957Z,926.12
2017-04-17T02:01:52.181Z,926.17
2017-04-17T02:03:05.433Z,926.2
2017-04-17T02:04:18.675Z,926.18
2017-04-17T02:05:31.935Z,926.15
2017-04-17T02:06:45.184Z,926.13
2017-04-17T02:07:58.535Z,926.11
2017-04-17T02:09:11.811Z,926.11
2017-04-17T02:10:25.241Z,926.12
2017-04-17T02:11:38.480Z,926.12
2017-04-17T02:12:51.700Z,926.11
2017-04-17T02:14:04.946Z,926.12
2017-04-17T02:15:17.646Z,926.11
2017-04-17T02:16:30.892Z,926.13
2017-04-17T02:17:44.155Z,926.18
2017-04-17T02:18:57.439Z,926.16
2017-04-17T02:20:10.150Z,926.16
2017-04-17T02:21:22.874Z,926.12
2017-04-17T02:22:36.102Z,926.11
2017-04-17T02:23:48.838Z,926.12
2017-04-17T02:25:01.575Z,926.08
2017-04-17T02:26:14.263Z,926.07
2017-04-17T02:27:27.499Z,926.07
2017-04-17T02:28:40.718Z,926.05
2017-04-17T02:29:53.963Z,926.04
2017-04-17T02:31:06.167Z,926
2017-04-17T02:32:18.867Z,926
2017-04-17T02:33:31.604Z,926.02
2017-04-17T02:34:44.850Z,926.05
2017-04-17T02:35:58.105Z,926.02
2017-04-17T02:37:11.374Z,926.04
2017-04-17T02:38:24.599Z,926.08
2017-04-17T02:39:37.846Z,926.09
2017-04-17T02:40:51.071Z,926.07
2017-04-17T02:42:03.792Z,926.04
2017-04-17T02:43:17.072Z,926.01
2017-04-17T02:44:30.304Z,925.95
2017-04-17T02:45:43.526Z,925.96
2017-04-17T02:46:56.832Z,925.95
2017-04-17T02:48:09.025Z,925.95
2017-04-17T02:49:21.735Z,925.91
2017-04-17T02:50:34.529Z,925.88
2017-04-17T02:51:47.742Z,925.91
2017-04-17T02:53:00.969Z,925.93
2017-04-17T02:54:13.696Z,925.95
2017-04-17T02:55:26.930Z,925.97
2017-04-17T02:56:40.191Z,925.96
2017-04-17T02:57:52.913Z,926
2017-04-17T02:59:05.631Z,925.91
2017-04-17T03:00:18.858Z,925.92
2017-04-17T03:01:32.084Z,925.93
2017-04-17T03:02:45.377Z,925.95
2017-04-17T03:03:58.596Z,925.93
2017-04-17T03:05:11.804Z,925.92
2017-04-17T03:06:25.099Z,925.95
2017-04-17T03:07:38.355Z,925.89
2017-04-17T03:08:51.870Z,925.92
2017-04-17T03:10:05.124Z,925.95
2017-04-17T03:11:17.855Z,925.96
2017-04-17T03:12:31.120Z,925.99
2017-04-17T03:13:43.843Z,925.97
2017-04-17T03:14:57.035Z,925.92
2017-04-17T03:16:10.228Z,925.87
2017-04-17T03:17:22.950Z,925.89
2017-04-17T03:18:36.169Z,925.85
2017-04-17T03:19:49.423Z,925.85
2017-04-17T03:21:02.657Z,925.85
2017-04-17T03:22:15.373Z,925.89
2017-04-17T03:23:28.610Z,925.85
2017-04-17T03:24:41.842Z,925.89
2017-04-17T03:25:55.107Z,925.9
2017-04-17T03:27:08.343Z,925.9
2017-04-17T03:28:20.551Z,925.92
2017-04-17T03:29:33.808Z,925.89
2017-04-17T03:30:47.071Z,925.91
2017-04-17T03:32:00.377Z,925.89
2017-04-17T03:33:13.096Z,925.93
2017-04-17T03:34:26.391Z,925.87
2017-04-17T03:35:39.612Z,925.86
2017-04-17T03:36:53.100Z,925.85
2017-04-17T03:38:06.395Z,925.82
2017-04-17T03:39:19.338Z,925.81
2017-04-17T03:40:32.575Z,925.77
2017-04-17T03:41:45.797Z,925.73
2017-04-17T03:42:59.050Z,925.72
2017-04-17T03:44:12.279Z,925.72
2017-04-17T03:45:25.027Z,925.71
2017-04-17T03:46:38.248Z,925.72
2017-04-17T03:47:51.467Z,925.73
2017-04-17T03:49:04.729Z,925.73
2017-04-17T03:50:16.929Z,925.73
2017-04-17T03:51:30.161Z,925.75
2017-04-17T03:52:43.521Z,925.76
2017-04-17T03:53:56.925Z,925.73
2017-04-17T03:55:10.215Z,925.73
2017-04-17T03:56:23.438Z,925.68
2017-04-17T03:57:36.684Z,925.69
2017-04-17T03:58:49.936Z,925.7
2017-04-17T04:00:03.153Z,925.67
2017-04-17T04:01:16.387Z,925.62
2017-04-17T04:02:29.597Z,925.65
2017-04-17T04:03:42.823Z,925.61
2017-04-17T04:04:56.082Z,925.59
2017-04-17T04:06:09.313Z,925.59
2017-04-17T04:07:22.244Z,925.61
2017-04-17T04:08:35.451Z,925.6
2017-04-17T04:09:48.677Z,925.58
2017-04-17T04:11:01.897Z,925.56
2017-04-17T04:12:15.114Z,925.55
2017-04-17T04:13:28.324Z,925.55
2017-04-17T04:14:41.587Z,925.5
2017-04-17T04:15:54.814Z,925.54
2017-04-17T04:17:08.027Z,925.53
2017-04-17T04:18:20.784Z,925.49
2017-04-17T04:19:34.028Z,925.45
2017-04-17T04:20:47.309Z,925.46
2017-04-17T04:22:00.536Z,925.47
2017-04-17T04:23:13.285Z,925.48
2017-04-17T04:24:26.548Z,925.47
2017-04-17T04:25:39.802Z,925.48
2017-04-17T04:26:53.038Z,925.48
2017-04-17T04:28:06.304Z,925.45
2017-04-17T04:29:18.538Z,925.47
2017-04-17T04:30:31.748Z,925.28
2017-04-17T04:31:44.991Z,925.4
2017-04-17T04:32:58.232Z,925.36
2017-04-17T04:34:11.461Z,925.4
2017-04-17T04:35:24.160Z,925.45
2017-04-17T04:36:37.380Z,925.41
2017-04-17T04:37:50.614Z,925.39
2017-04-17T04:39:03.895Z,925.39
2017-04-17T04:40:16.120Z,925.37
2017-04-17T04:41:29.367Z,925.39
2017-04-17T04:42:42.112Z,925.36
2017-04-17T04:43:55.351Z,925.4
2017-04-17T04:45:08.581Z,925.4
2017-04-17T04:46:21.831Z,925.37
2017-04-17T04:47:35.056Z,925.38
2017-04-17T04:48:48.317Z,925.41
2017-04-17T04:50:01.035Z,925.4
2017-04-17T04:51:14.342Z,925.46
2017-04-17T04:52:27.606Z,925.48
2017-04-17T04:53:40.862Z,925.52
2017-04-17T04:54:54.470Z,925.55
2017-04-17T04:56:07.683Z,925.51
2017-04-17T04:57:21.023Z,925.52
2017-04-17T04:58:34.247Z,925.53
2017-04-17T04:59:47.561Z,925.5
2017-04-17T05:01:00.813Z,925.45
2017-04-17T05:02:13.522Z,925.41
2017-04-17T05:03:26.741Z,925.41
2017-04-17T05:04:39.982Z,925.36
2017-04-17T05:05:53.222Z,925.32
2017-04-17T05:07:06.478Z,925.31
2017-04-17T05:08:19.746Z,925.29
2017-04-17T05:09:33.027Z,925.26
2017-04-17T05:10:46.264Z,925.27
2017-04-17T05:11:59.497Z,925.29
2017-04-17T05:13:12.760Z,925.23
2017-04-17T05:14:26.043Z,925.3
2017-04-17T05:15:39.273Z,925.26
2017-04-17T05:16:52.549Z,925.27
2017-04-17T05:18:05.787Z,925.31
2017-04-17T05:19:18.504Z,925.34
2017-04-17T05:20:31.739Z,925.31
2017-04-17T05:21:44.482Z,925.38
2017-04-17T05:22:57.707Z,925.38
2017-04-17T05:24:10.896Z,925.37
2017-04-17T05:25:24.225Z,925.38
2017-04-17T05:26:37.496Z,925.4
2017-04-17T05:27:50.739Z,925.36
2017-04-17T05:29:04.055Z,925.29
2017-04-17T05:30:17.291Z,925.32
2017-04-17T05:31:30.535Z,925.29
2017-04-17T05:32:43.769Z,925.3
2017-04-17T05:33:56.987Z,925.27
2017-04-17T05:35:10.208Z,925.3
2017-04-17T05:36:22.899Z,925.3
2017-04-17T05:37:36.131Z,925.3
2017-04-17T05:38:49.367Z,925.34
2017-04-17T05:40:02.623Z,925.36
2017-04-17T05:41:15.050Z,925.31
2017-04-17T05:42:28.276Z,925.33
2017-04-17T05:43:41.572Z,925.33
2017-04-17T05:44:54.802Z,925.32
2017-04-17T05:46:08.046Z,925.34
2017-04-17T05:47:20.780Z,925.36
2017-04-17T05:48:34.028Z,925.35
2017-04-17T05:49:47.253Z,925.31
2017-04-17T05:51:00.481Z,925.33
2017-04-17T05:52:13.203Z,925.28
2017-04-17T05:53:26.444Z,925.31
2017-04-17T05:54:39.677Z,925.23
2017-04-17T05:55:53.105Z,925.26
2017-04-17T05:57:06.327Z,925.26
2017-04-17T05:58:19.568Z,925.24
2017-04-17T05:59:32.812Z,925.21
2017-04-17T06:00:46.028Z,925.22
2017-04-17T06:01:59.270Z,925.2
2017-04-17T06:03:12.500Z,925.22
2017-04-17T06:04:25.243Z,925.21
2017-04-17T06:05:38.441Z,925.19
2017-04-17T06:06:51.712Z,925.21
2017-04-17T06:08:04.945Z,925.15
2017-04-17T06:09:17.700Z,925.13
2017-04-17T06:10:30.992Z,925.14
2017-04-17T06:11:43.755Z,925.1
2017-04-17T06:12:56.999Z,925.06
2017-04-17T06:14:10.626Z,925.03
2017-04-17T06:15:23.388Z,925.03
2017-04-17T06:16:36.636Z,924.99
2017-04-17T06:17:49.866Z,924.93
2017-04-17T06:19:03.077Z,924.9
2017-04-17T06:20:16.338Z,924.93
2017-04-17T06:21:29.590Z,924.93
2017-04-17T06:22:42.799Z,924.93
2017-04-17T06:23:56.021Z,924.91
2017-04-17T06:25:08.735Z,924.9
2017-04-17T06:26:21.969Z,924.9
2017-04-17T06:27:35.223Z,924.91
2017-04-17T06:28:48.666Z,924.87
2017-04-17T06:30:01.928Z,924.9
2017-04-17T06:31:14.675Z,924.87
2017-04-17T06:32:27.945Z,924.86
2017-04-17T06:33:41.212Z,924.84
2017-04-17T06:34:54.482Z,924.86
2017-04-17T06:36:07.733Z,924.85
2017-04-17T06:37:20.937Z,924.87
2017-04-17T06:38:34.210Z,924.88
2017-04-17T06:39:47.534Z,924.93
2017-04-17T06:41:00.793Z,924.93
2017-04-17T06:42:13.091Z,924.97
2017-04-17T06:43:26.453Z,924.97
2017-04-17T06:44:39.668Z,924.98
2017-04-17T06:45:52.932Z,925.01
2017-04-17T06:47:06.158Z,924.98
2017-04-17T06:48:18.891Z,925.02
2017-04-17T06:49:32.198Z,924.98
2017-04-17T06:50:44.914Z,924.96
2017-04-17T06:51:58.148Z,924.98
2017-04-17T06:53:10.858Z,924.97
2017-04-17T06:54:24.105Z,924.95
2017-04-17T06:55:37.392Z,924.95
2017-04-17T06:56:50.956Z,924.96
2017-04-17T06:58:04.189Z,924.97
2017-04-17T06:59:17.489Z,924.91
2017-04-17T07:00:30.757Z,924.92
2017-04-17T07:01:44.023Z,924.89
2017-04-17T07:02:57.238Z,924.88
2017-04-17T07:04:10.456Z,924.86
2017-04-17T07:05:23.163Z,924.86
2017-04-17T07:06:36.375Z,924.88
2017-04-17T07:07:49.612Z,924.89
2017-04-17T07:09:02.874Z,924.9
2017-04-17T07:10:16.127Z,924.91
2017-04-17T07:11:29.399Z,924.9
2017-04-17T07:12:42.659Z,924.85
2017-04-17T07:13:56.025Z,924.87
2017-04-17T07:15:08.248Z,924.87
2017-04-17T07:16:20.465Z,924.89
2017-04-17T07:17:33.705Z,924.92
2017-04-17T07:18:46.961Z,924.89
2017-04-17T07:20:00.236Z,924.9
2017-04-17T07:21:12.997Z,924.85
2017-04-17T07:22:26.205Z,924.89
2017-04-17T07:23:39.430Z,924.84
2017-04-17T07:24:52.644Z,924.89
2017-04-17T07:26:05.879Z,924.9
2017-04-17T07:27:18.092Z,924.93
2017-04-17T07:28:31.293Z,924.91
2017-04-17T07:29:44.764Z,925.01
2017-04-17T07:30:58.082Z,925.03
2017-04-17T07:32:11.468Z,925
2017-04-17T07:33:24.706Z,925.02
2017-04-17T07:34:37.951Z,925.03
2017-04-17T07:35:51.214Z,925
2017-04-17T07:37:04.434Z,925.01
2017-04-17T07:38:17.644Z,925
2017-04-17T07:39:30.877Z,925
2017-04-17T07:40:44.120Z,925.04
2017-04-17T07:41:57.386Z,924.97
2017-04-17T07:43:10.613Z,925.02
2017-04-17T07:44:23.861Z,925.02
2017-04-17T07:45:37.138Z,925
2017-04-17T07:46:50.393Z,925.03
2017-04-17T07:48:03.679Z,925.02
2017-04-17T07:49:16.952Z,925.02
2017-04-17T07:50:30.187Z,925.03
2017-04-17T07:51:43.494Z,925.04
2017-04-17T07:52:56.762Z,925.05
2017-04-17T07:54:09.999Z,925.05
2017-04-17T07:55:22.240Z,925.07
2017-04-17T07:56:34.991Z,925.13
2017-04-17T07:57:47.774Z,925.13
2017-04-17T07:59:00.496Z,925.16
2017-04-17T08:00:13.790Z,925.13
2017-04-17T08:01:26.568Z,925.11
2017-04-17T08:02:40.016Z,925.1
2017-04-17T08:03:53.250Z,925.13
2017-04-17T08:05:06.541Z,925.09
2017-04-17T08:06:19.761Z,925.09
2017-04-17T08:07:32.999Z,925.12
2017-04-17T08:08:46.233Z,925.11
2017-04-17T08:09:58.935Z,925.15
2017-04-17T08:11:11.652Z,925.17
2017-04-17T08:12:24.890Z,925.18
2017-04-17T08:13:38.136Z,925.14
2017-04-17T08:14:51.348Z,925.14
2017-04-17T08:16:04.094Z,925.13
2017-04-17T08:17:16.820Z,925.15
2017-04-17T08:18:30.064Z,925.17
2017-04-17T08:19:42.782Z,925.18
2017-04-17T08:20:56.008Z,925.17
2017-04-17T08:22:08.720Z,925.15
2017-04-17T08:23:21.429Z,925.13
2017-04-17T08:24:34.679Z,925.13
2017-04-17T08:25:47.939Z,925.13
2017-04-17T08:27:01.222Z,925.16
2017-04-17T08:28:14.459Z,925.18
2017-04-17T08:29:27.180Z,925.21
2017-04-17T08:30:40.516Z,925.22
2017-04-17T08:31:53.867Z,925.23
2017-04-17T08:33:07.170Z,925.22
2017-04-17T08:34:19.880Z,925.22
2017-04-17T08:35:33.102Z,925.23
2017-04-17T08:36:46.340Z,925.26
2017-04-17T08:37:59.560Z,925.26
2017-04-17T08:39:12.827Z,925.25
2017-04-17T08:40:26.106Z,925.25
2017-04-17T08:41:38.845Z,925.26
2017-04-17T08:42:52.089Z,925.28
2017-04-17T08:44:05.326Z,925.27
2017-04-17T08:45:17.540Z,925.29
2017-04-17T08:46:30.781Z,925.33
2017-04-17T08:47:43.963Z,925.33
2017-04-17T08:48:57.295Z,925.31
2017-04-17T08:50:10.528Z,925.38
2017-04-17T08:51:23.763Z,925.37
2017-04-17T08:52:37.000Z,925.38
2017-04-17T08:53:50.216Z,925.4
2017-04-17T08:55:02.921Z,925.39
2017-04-17T08:56:16.168Z,925.43
2017-04-17T08:57:29.428Z,925.42
2017-04-17T08:58:42.716Z,925.44
2017-04-17T08:59:55.914Z,925.48
2017-04-17T09:01:09.226Z,925.44
2017-04-17T09:02:21.962Z,925.47
2017-04-17T09:03:35.632Z,925.47
2017-04-17T09:04:48.865Z,925.52
2017-04-17T09:06:02.093Z,925.57
2017-04-17T09:07:14.824Z,925.58
2017-04-17T09:08:28.065Z,925.6
2017-04-17T09:09:40.795Z,925.65
2017-04-17T09:10:54.063Z,925.68
2017-04-17T09:12:07.292Z,925.7
2017-04-17T09:13:20.004Z,925.69
2017-04-17T09:14:33.266Z,925.69
2017-04-17T09:15:46.536Z,925.68
2017-04-17T09:16:59.823Z,925.7
2017-04-17T09:18:13.092Z,925.74
2017-04-17T09:19:25.277Z,925.76
2017-04-17T09:20:38.783Z,925.84
2017-04-17T09:21:52.254Z,925.84
2017-04-17T09:23:05.539Z,925.86
2017-04-17T09:24:18.775Z,925.88
2017-04-17T09:25:31.510Z,925.88
2017-04-17T09:26:44.779Z,925.87
2017-04-17T09:27:58.009Z,925.88
2017-04-17T09:29:11.258Z,925.89
2017-04-17T09:30:24.018Z,925.87
2017-04-17T09:31:37.955Z,925.89
2017-04-17T09:32:51.891Z,925.96
2017-04-17T09:34:05.868Z,926.01
2017-04-17T09:35:19.830Z,926
2017-04-17T09:36:33.755Z,926.05
2017-04-17T09:37:46.594Z,926.09
2017-04-17T09:39:00.570Z,926.14
2017-04-17T09:40:14.524Z,926.14
2017-04-17T09:41:28.466Z,926.17
2017-04-17T09:42:42.408Z,926.22
2017-04-17T09:43:56.322Z,926.23
2017-04-17T09:45:09.712Z,926.27
2017-04-17T09:46:23.104Z,926.28
2017-04-17T09:47:37.060Z,926.28
2017-04-17T09:48:51.034Z,926.27
2017-04-17T09:50:04.973Z,926.32
2017-04-17T09:51:18.919Z,926.32
2017-04-17T09:52:32.957Z,926.35
2017-04-17T09:53:46.912Z,926.34
2017-04-17T09:55:00.854Z,926.36
2017-04-17T09:56:13.718Z,926.35
2017-04-17T09:57:27.681Z,926.32
2017-04-17T09:58:41.681Z,926.28
2017-04-17T09:59:55.060Z,926.29
2017-04-17T10:01:09.023Z,926.27
2017-04-17T10:02:21.856Z,926.28
2017-04-17T10:03:35.781Z,926.28
2017-04-17T10:04:49.736Z,926.29
2017-04-17T10:06:03.716Z,926.25
2017-04-17T10:07:17.654Z,926.25
2017-04-17T10:08:31.569Z,926.26
2017-04-17T10:09:45.514Z,926.24
2017-04-17T10:10:58.878Z,926.24
2017-04-17T10:12:12.274Z,926.26
2017-04-17T10:13:26.183Z,926.28
2017-04-17T10:14:40.100Z,926.28
2017-04-17T10:15:53.459Z,926.29
2017-04-17T10:17:07.401Z,926.3
2017-04-17T10:18:20.782Z,926.29
2017-04-17T10:19:34.754Z,926.3
2017-04-17T10:20:48.822Z,926.33
2017-04-17T10:22:02.230Z,926.36
2017-04-17T10:23:16.216Z,926.37
2017-04-17T10:24:30.185Z,926.37
2017-04-17T10:25:44.118Z,926.39
2017-04-17T10:26:58.092Z,926.37
2017-04-17T10:28:11.493Z,926.44
2017-04-17T10:29:25.398Z,926.48
2017-04-17T10:30:39.305Z,926.51
2017-04-17T10:31:53.204Z,926.56
2017-04-17T10:33:07.114Z,926.56
2017-04-17T10:34:21.209Z,926.59
2017-04-17T10:35:35.173Z,926.58
2017-04-17T10:36:49.099Z,926.56
2017-04-17T10:38:03.099Z,926.59
2017-04-17T10:39:17.047Z,926.55
2017-04-17T10:40:30.489Z,926.48
2017-04-17T10:41:44.445Z,926.49
2017-04-17T10:42:57.800Z,926.53
2017-04-17T10:44:11.746Z,926.53
2017-04-17T10:45:25.154Z,926.57
2017-04-17T10:46:38.554Z,926.56
2017-04-17T10:47:52.492Z,926.61
2017-04-17T10:49:05.865Z,926.63
2017-04-17T10:50:19.813Z,926.62
2017-04-17T10:51:33.887Z,926.63
2017-04-17T10:52:47.269Z,926.6
2017-04-17T10:54:01.224Z,926.56
2017-04-17T10:55:15.161Z,926.56
2017-04-17T10:56:29.093Z,926.56
2017-04-17T10:57:43.030Z,926.6
2017-04-17T10:58:56.964Z,926.64
2017-04-17T11:00:10.907Z,926.62
2017-04-17T11:01:24.828Z,926.61
2017-04-17T11:02:38.690Z,926.63
2017-04-17T11:03:53.313Z,926.63
2017-04-17T11:05:07.258Z,926.65
2017-04-17T11:06:21.239Z,926.66
2017-04-17T11:07:35.192Z,926.65
2017-04-17T11:08:49.142Z,926.66
2017-04-17T11:10:03.063Z,926.65
2017-04-17T11:11:16.490Z,926.63
2017-04-17T11:12:29.886Z,926.66
2017-04-17T11:13:43.807Z,926.63
2017-04-17T11:14:57.764Z,926.65
2017-04-17T11:16:11.749Z,926.7
2017-04-17T11:17:25.124Z,926.69
2017-04-17T11:18:39.225Z,926.75
2017-04-17T11:19:53.385Z,926.74
2017-04-17T11:21:07.336Z,926.78
2017-04-17T11:22:21.321Z,926.79
2017-04-17T11:23:34.695Z,926.81
2017-04-17T11:24:48.121Z,926.86
2017-04-17T11:26:02.089Z,926.83
2017-04-17T11:27:16.026Z,926.88
2017-04-17T11:28:36.399Z,926.87
2017-04-17T11:30:02.987Z,926.9
2017-04-17T11:31:16.868Z,926.95
2017-04-17T11:32:29.599Z,926.98
2017-04-17T11:33:42.837Z,926.99
2017-04-17T11:34:56.169Z,926.97
2017-04-17T11:36:09.380Z,926.94
2017-04-17T11:37:22.597Z,926.97
2017-04-17T11:38:35.834Z,927
2017-04-17T11:39:49.061Z,926.96
2017-04-17T11:41:02.348Z,926.98
2017-04-17T11:42:15.623Z,926.97
2017-04-17T11:43:28.935Z,926.98
2017-04-17T11:44:41.785Z,926.97
2017-04-17T11:45:54.888Z,927.01
2017-04-17T11:47:07.699Z,927.04
2017-04-17T11:48:20.402Z,927.09
2017-04-17T11:49:33.667Z,927.09
2017-04-17T11:50:47.113Z,927.13
2017-04-17T11:52:00.547Z,927.1
2017-04-17T11:53:13.799Z,927.14
2017-04-17T11:54:26.515Z,927.16
2017-04-17T11:55:38.745Z,927.14
2017-04-17T11:56:51.984Z,927.19
2017-04-17T11:58:05.253Z,927.19
2017-04-17T11:59:18.495Z,927.16
2017-04-17T12:00:31.896Z,927.16
2017-04-17T12:01:45.348Z,927.16
2017-04-17T12:02:58.875Z,927.14
2017-04-17T12:04:12.216Z,927.16
2017-04-17T12:05:25.480Z,927.17
2017-04-17T12:06:38.214Z,927.17
2017-04-17T12:07:50.481Z,927.17
2017-04-17T12:09:03.737Z,927.19
2017-04-17T12:10:17.015Z,927.17
2017-04-17T12:11:30.266Z,927.21
2017-04-17T12:12:43.474Z,927.23
2017-04-17T12:13:56.706Z,927.24
2017-04-17T12:15:09.970Z,927.22
2017-04-17T12:16:23.227Z,927.21
2017-04-17T12:17:36.489Z,927.26
2017-04-17T12:18:48.717Z,927.28
2017-04-17T12:20:02.307Z,927.27
2017-04-17T12:21:15.526Z,927.25
2017-04-17T12:22:28.756Z,927.29
2017-04-17T12:23:41.473Z,927.29
2017-04-17T12:24:54.418Z,927.32
2017-04-17T12:26:07.634Z,927.31
2017-04-17T12:27:20.873Z,927.3
2017-04-17T12:28:34.101Z,927.34
2017-04-17T12:29:47.376Z,927.32
2017-04-17T12:31:00.134Z,927.35
2017-04-17T12:32:13.382Z,927.39
2017-04-17T12:33:26.676Z,927.45
2017-04-17T12:34:39.983Z,927.44
2017-04-17T12:35:53.468Z,927.44
2017-04-17T12:37:06.707Z,927.48
2017-04-17T12:38:20.014Z,927.46
2017-04-17T12:39:33.281Z,927.47
2017-04-17T12:40:46.037Z,927.42
2017-04-17T12:41:59.286Z,927.48
2017-04-17T12:43:12.522Z,927.46
2017-04-17T12:44:25.739Z,927.42
2017-04-17T12:45:38.461Z,927.44
2017-04-17T12:46:51.673Z,927.41
2017-04-17T12:48:04.917Z,927.4
2017-04-17T12:49:17.651Z,927.44
2017-04-17T12:50:30.867Z,927.39
2017-04-17T12:51:44.090Z,927.43
2017-04-17T12:52:56.952Z,927.42
2017-04-17T12:54:10.226Z,927.44
2017-04-17T12:55:22.988Z,927.42
2017-04-17T12:56:36.271Z,927.43
2017-04-17T12:57:49.515Z,927.44
2017-04-17T12:59:02.743Z,927.43
2017-04-17T13:00:16.038Z,927.43
2017-04-17T13:01:28.791Z,927.4
2017-04-17T13:02:42.009Z,927.4
2017-04-17T13:03:54.742Z,927.36
2017-04-17T13:05:07.480Z,927.39
2017-04-17T13:06:20.739Z,927.41
2017-04-17T13:07:33.980Z,927.37
2017-04-17T13:08:46.188Z,927.32
2017-04-17T13:09:59.427Z,927.32
2017-04-17T13:11:12.781Z,927.31
2017-04-17T13:12:25.552Z,927.29
2017-04-17T13:13:38.790Z,927.28
2017-04-17T13:14:52.048Z,927.31
2017-04-17T13:16:05.340Z,927.28
2017-04-17T13:17:18.072Z,927.26
2017-04-17T13:18:31.295Z,927.26
2017-04-17T13:19:44.034Z,927.26
2017-04-17T13:20:57.250Z,927.2
2017-04-17T13:22:10.486Z,927.23
2017-04-17T13:23:23.712Z,927.21
2017-04-17T13:24:37.027Z,927.24
2017-04-17T13:25:49.752Z,927.24
2017-04-17T13:27:03.257Z,927.27
2017-04-17T13:28:16.673Z,927.26
2017-04-17T13:29:29.905Z,927.22
2017-04-17T13:30:43.157Z,927.21
2017-04-17T13:31:56.400Z,927.18
2017-04-17T13:33:09.647Z,927.32
2017-04-17T13:34:22.911Z,927.28
2017-04-17T13:35:36.168Z,927.09
2017-04-17T13:36:49.439Z,927.26
2017-04-17T13:38:02.674Z,927.27
2017-04-17T13:39:15.885Z,927.25
2017-04-17T13:40:29.132Z,927.25
2017-04-17T13:41:42.368Z,927.25
2017-04-17T13:42:55.116Z,927.29
2017-04-17T13:44:08.385Z,927.27
2017-04-17T13:45:21.648Z,927.3
2017-04-17T13:46:34.885Z,927.3
2017-04-17T13:47:48.157Z,927.28
2017-04-17T13:49:01.418Z,927.33
2017-04-17T13:50:14.149Z,927.33
2017-04-17T13:51:27.367Z,927.34
2017-04-17T13:52:40.628Z,927.3
2017-04-17T13:53:53.966Z,927.34
2017-04-17T13:55:07.192Z,927.32
2017-04-17T13:56:20.417Z,927.34
2017-04-17T13:57:33.832Z,927.33
2017-04-17T13:58:47.105Z,927.35
2017-04-17T14:00:00.356Z,927.42
2017-04-17T14:01:13.113Z,927.37
2017-04-17T14:02:26.348Z,927.37
2017-04-17T14:04:10.784Z,927.42
2017-04-17T14:05:24.027Z,927.38
2017-04-17T14:06:37.284Z,927.38
2017-04-17T14:07:50.207Z,927.37
2017-04-17T14:09:03.604Z,927.42
2017-04-17T14:10:16.338Z,927.37
2017-04-17T14:11:29.633Z,927.35
2017-04-17T14:12:42.373Z,927.39
2017-04-17T14:13:55.138Z,927.37
2017-04-17T14:15:07.860Z,927.38
2017-04-17T14:16:21.084Z,927.32
2017-04-17T14:17:33.813Z,927.34
2017-04-17T14:18:47.080Z,927.33
2017-04-17T14:20:00.320Z,927.38
2017-04-17T14:21:13.076Z,927.28
2017-04-17T14:22:24.269Z,927.32
2017-04-17T14:23:37.507Z,927.35
2017-04-17T14:24:50.268Z,927.3
2017-04-17T14:26:03.736Z,927.21
2017-04-17T14:27:16.961Z,927.11
2017-04-17T14:28:29.706Z,927.23
2017-04-17T14:29:42.960Z,927.23
2017-04-17T14:30:55.686Z,927.23
2017-04-17T14:32:08.944Z,927.16
2017-04-17T14:33:22.189Z,927.1
2017-04-17T14:34:35.472Z,927.13
2017-04-17T14:35:48.726Z,927.16
2017-04-17T14:37:01.474Z,927.12
2017-04-17T14:38:14.737Z,927.08
2017-04-17T14:39:27.484Z,927.1
2017-04-17T14:40:41.014Z,927.07
2017-04-17T14:41:55.006Z,927.1
2017-04-17T14:43:08.934Z,927.06
2017-04-17T14:44:22.872Z,927.02
2017-04-17T14:45:36.820Z,927.05
2017-04-17T14:46:50.784Z,927.04
2017-04-17T14:48:04.749Z,927.01
2017-04-17T14:49:18.782Z,927.03
2017-04-17T14:50:32.754Z,927.02
2017-04-17T14:51:46.188Z,927
2017-04-17T14:52:59.602Z,927.05
2017-04-17T14:54:13.558Z,926.96
2017-04-17T14:55:27.524Z,926.88
2017-04-17T14:56:41.489Z,927.02
2017-04-17T14:57:55.506Z,927.02
2017-04-17T14:59:09.686Z,926.99
2017-04-17T15:00:23.628Z,926.88
2017-04-17T15:01:37.601Z,926.91
2017-04-17T15:02:51.564Z,926.94
2017-04-17T15:04:04.968Z,926.97
2017-04-17T15:05:18.905Z,926.79
2017-04-17T15:06:32.869Z,926.93
2017-04-17T15:07:46.867Z,926.86
2017-04-17T15:09:00.863Z,926.83
2017-04-17T15:10:14.917Z,926.82
2017-04-17T15:11:28.299Z,926.9
2017-04-17T15:12:42.338Z,926.79
2017-04-17T15:13:56.340Z,926.74
2017-04-17T15:15:10.288Z,926.7
2017-04-17T15:16:24.241Z,926.78
2017-04-17T15:17:38.206Z,926.72
2017-04-17T15:18:52.171Z,926.68